createdAt,value
2018-06-14T00:00:46.481Z,21.77
2018-06-14T00:01:46.442Z,21.77
2018-06-14T00:02:46.537Z,21.8
2018-06-14T00:03:46.477Z,21.8
2018-06-14T00:04:46.591Z,21.77
2018-06-14T00:05:46.359Z,21.77
2018-06-14T00:06:46.428Z,21.77
2018-06-14T00:07:46.588Z,21.77
2018-06-14T00:08:46.543Z,21.78
2018-06-14T00:09:46.532Z,21.77
2018-06-14T00:10:46.539Z,21.8
2018-06-14T00:11:46.574Z,21.8
2018-06-14T00:12:46.636Z,21.77
2018-06-14T00:13:46.511Z,21.77
2018-06-14T00:14:46.570Z,21.76
2018-06-14T00:15:46.613Z,21.77
2018-06-14T00:16:46.416Z,21.77
2018-06-14T00:17:46.547Z,21.74
2018-06-14T00:18:46.527Z,21.77
2018-06-14T00:19:46.439Z,21.76
2018-06-14T00:20:46.735Z,21.76
2018-06-14T00:21:46.357Z,21.76
2018-06-14T00:22:46.530Z,21.74
2018-06-14T00:23:46.568Z,21.77
2018-06-14T00:24:46.777Z,21.77
2018-06-14T00:25:46.344Z,21.77
2018-06-14T00:26:46.567Z,21.78
2018-06-14T00:27:46.455Z,21.71
2018-06-14T00:28:46.490Z,21.71
2018-06-14T00:29:46.523Z,21.68
2018-06-14T00:30:46.793Z,21.68
2018-06-14T00:31:46.489Z,21.71
2018-06-14T00:32:46.506Z,21.7
2018-06-14T00:33:46.777Z,21.71
2018-06-14T00:34:46.471Z,21.7
2018-06-14T00:35:46.506Z,21.74
2018-06-14T00:36:46.515Z,21.74
2018-06-14T00:37:46.665Z,21.71
2018-06-14T00:38:46.820Z,21.73
2018-06-14T00:39:46.426Z,21.73
2018-06-14T00:40:46.472Z,21.73
2018-06-14T00:41:46.488Z,21.74
2018-06-14T00:42:46.574Z,21.76
2018-06-14T00:43:46.432Z,21.76
2018-06-14T00:44:46.492Z,21.73
2018-06-14T00:45:46.553Z,21.76
2018-06-14T00:46:46.640Z,21.73
2018-06-14T00:47:46.538Z,21.73
2018-06-14T00:48:46.444Z,21.71
2018-06-14T00:49:46.678Z,21.68
2018-06-14T00:50:46.736Z,21.7
2018-06-14T00:51:46.461Z,21.68
2018-06-14T00:52:56.388Z,21.68
2018-06-14T00:53:46.663Z,21.74
2018-06-14T00:54:46.429Z,21.67
2018-06-14T00:55:46.609Z,21.71
2018-06-14T00:56:46.627Z,21.68
2018-06-14T00:57:46.394Z,21.73
2018-06-14T00:58:46.567Z,21.73
2018-06-14T00:59:46.468Z,21.71
2018-06-14T01:00:46.515Z,21.71
2018-06-14T01:01:46.544Z,21.7
2018-06-14T01:02:46.602Z,21.7
2018-06-14T01:03:46.583Z,21.71
2018-06-14T01:04:46.641Z,21.7
2018-06-14T01:05:46.409Z,21.7
2018-06-14T01:06:46.664Z,21.71
2018-06-14T01:07:46.563Z,21.68
2018-06-14T01:08:46.553Z,21.7
2018-06-14T01:09:46.389Z,21.7
2018-06-14T01:10:46.585Z,21.71
2018-06-14T01:11:46.595Z,21.71
2018-06-14T01:12:46.671Z,21.71
2018-06-14T01:13:46.332Z,21.7
2018-06-14T01:14:46.400Z,21.68
2018-06-14T01:15:46.537Z,21.67
2018-06-14T01:16:46.427Z,21.67
2018-06-14T01:17:46.604Z,21.68
2018-06-14T01:18:46.465Z,21.66
2018-06-14T01:19:46.618Z,21.68
2018-06-14T01:20:46.501Z,21.67
2018-06-14T01:21:46.411Z,21.71
2018-06-14T01:22:46.365Z,21.67
2018-06-14T01:23:46.491Z,21.64
2018-06-14T01:24:46.491Z,21.64
2018-06-14T01:25:46.534Z,21.66
2018-06-14T01:26:46.674Z,21.61
2018-06-14T01:27:46.432Z,21.64
2018-06-14T01:28:46.961Z,21.66
2018-06-14T01:29:46.547Z,21.7
2018-06-14T01:30:46.557Z,21.68
2018-06-14T01:31:46.416Z,21.7
2018-06-14T01:32:46.428Z,21.7
2018-06-14T01:33:46.520Z,21.7
2018-06-14T01:34:46.629Z,21.68
2018-06-14T01:35:46.635Z,21.68
2018-06-14T01:36:46.519Z,21.68
2018-06-14T01:37:46.620Z,21.68
2018-06-14T01:38:46.454Z,21.7
2018-06-14T01:39:46.588Z,21.7
2018-06-14T01:40:46.407Z,21.66
2018-06-14T01:41:47.085Z,21.64
2018-06-14T01:42:46.503Z,21.6
2018-06-14T01:43:46.621Z,21.63
2018-06-14T01:44:46.446Z,21.63
2018-06-14T01:45:46.527Z,21.66
2018-06-14T01:46:46.355Z,21.66
2018-06-14T01:47:46.541Z,21.73
2018-06-14T01:48:46.450Z,21.67
2018-06-14T01:49:46.311Z,21.68
2018-06-14T01:50:46.463Z,21.66
2018-06-14T01:51:46.514Z,21.64
2018-06-14T01:52:46.562Z,21.67
2018-06-14T01:53:46.581Z,21.67
2018-06-14T01:54:46.377Z,21.68
2018-06-14T01:55:46.448Z,21.68
2018-06-14T01:56:46.787Z,21.7
2018-06-14T01:57:46.406Z,21.66
2018-06-14T01:58:46.474Z,21.64
2018-06-14T01:59:46.456Z,21.6
2018-06-14T02:00:46.495Z,21.61
2018-06-14T02:01:46.356Z,21.63
2018-06-14T02:02:46.747Z,21.68
2018-06-14T02:03:46.540Z,21.66
2018-06-14T02:04:46.364Z,21.68
2018-06-14T02:05:46.637Z,21.66
2018-06-14T02:06:46.537Z,21.66
2018-06-14T02:07:46.395Z,21.66
2018-06-14T02:08:46.422Z,21.66
2018-06-14T02:09:46.448Z,21.67
2018-06-14T02:10:46.566Z,21.66
2018-06-14T02:11:46.517Z,21.66
2018-06-14T02:12:46.451Z,21.68
2018-06-14T02:13:46.490Z,21.68
2018-06-14T02:14:46.557Z,21.66
2018-06-14T02:15:46.495Z,21.67
2018-06-14T02:16:46.471Z,21.68
2018-06-14T02:17:46.374Z,21.64
2018-06-14T02:18:46.541Z,21.64
2018-06-14T02:19:46.580Z,21.64
2018-06-14T02:20:46.427Z,21.66
2018-06-14T02:21:46.502Z,21.63
2018-06-14T02:22:46.470Z,21.66
2018-06-14T02:23:46.499Z,21.63
2018-06-14T02:24:46.510Z,21.59
2018-06-14T02:25:46.442Z,21.6
2018-06-14T02:26:46.421Z,21.61
2018-06-14T02:27:46.618Z,21.6
2018-06-14T02:28:46.464Z,21.61
2018-06-14T02:29:46.459Z,21.63
2018-06-14T02:30:46.483Z,21.64
2018-06-14T02:31:46.520Z,21.66
2018-06-14T02:32:46.513Z,21.66
2018-06-14T02:33:46.457Z,21.63
2018-06-14T02:34:46.341Z,21.64
2018-06-14T02:35:46.447Z,21.61
2018-06-14T02:36:46.626Z,21.64
2018-06-14T02:37:46.777Z,21.61
2018-06-14T02:38:46.777Z,21.61
2018-06-14T02:39:46.551Z,21.6
2018-06-14T02:40:46.490Z,21.67
2018-06-14T02:41:46.517Z,21.63
2018-06-14T02:42:46.452Z,21.6
2018-06-14T02:43:46.461Z,21.64
2018-06-14T02:44:46.694Z,21.66
2018-06-14T02:45:46.484Z,21.66
2018-06-14T02:46:46.363Z,21.61
2018-06-14T02:47:46.455Z,21.61
2018-06-14T02:48:46.390Z,21.66
2018-06-14T02:49:46.502Z,21.64
2018-06-14T02:50:46.555Z,21.64
2018-06-14T02:51:46.546Z,21.64
2018-06-14T02:52:46.554Z,21.64
2018-06-14T02:53:46.399Z,21.66
2018-06-14T02:54:46.512Z,21.64
2018-06-14T02:55:46.491Z,21.64
2018-06-14T02:56:46.620Z,21.66
2018-06-14T02:57:46.392Z,21.67
2018-06-14T02:58:46.492Z,21.66
2018-06-14T02:59:46.466Z,21.67
2018-06-14T03:00:46.390Z,21.66
2018-06-14T03:01:46.533Z,21.63
2018-06-14T03:02:46.620Z,21.63
2018-06-14T03:03:56.476Z,21.64
2018-06-14T03:04:46.711Z,21.64
2018-06-14T03:05:46.697Z,21.64
2018-06-14T03:06:46.542Z,21.64
2018-06-14T03:07:46.727Z,21.66
2018-06-14T03:08:46.248Z,21.66
2018-06-14T03:09:46.369Z,21.66
2018-06-14T03:10:46.538Z,21.64
2018-06-14T03:11:46.555Z,21.64
2018-06-14T03:12:46.556Z,21.64
2018-06-14T03:13:46.456Z,21.64
2018-06-14T03:14:46.506Z,21.67
2018-06-14T03:15:46.460Z,21.67
2018-06-14T03:16:46.597Z,21.68
2018-06-14T03:17:46.664Z,21.64
2018-06-14T03:18:46.494Z,21.66
2018-06-14T03:19:46.518Z,21.66
2018-06-14T03:20:46.525Z,21.67
2018-06-14T03:21:46.513Z,21.66
2018-06-14T03:22:46.519Z,21.66
2018-06-14T03:23:46.370Z,21.63
2018-06-14T03:24:46.354Z,21.66
2018-06-14T03:25:46.771Z,21.61
2018-06-14T03:26:46.322Z,21.64
2018-06-14T03:27:46.527Z,21.64
2018-06-14T03:28:46.626Z,21.6
2018-06-14T03:29:46.476Z,21.63
2018-06-14T03:30:46.443Z,21.63
2018-06-14T03:31:46.394Z,21.63
2018-06-14T03:32:46.325Z,21.63
2018-06-14T03:33:46.433Z,21.64
2018-06-14T03:34:46.577Z,21.63
2018-06-14T03:35:46.567Z,21.67
2018-06-14T03:36:46.405Z,21.64
2018-06-14T03:37:46.532Z,21.64
2018-06-14T03:38:46.342Z,21.66
2018-06-14T03:39:46.532Z,21.64
2018-06-14T03:40:47.047Z,21.64
2018-06-14T03:41:46.488Z,21.67
2018-06-14T03:42:46.381Z,21.68
2018-06-14T03:43:46.556Z,21.68
2018-06-14T03:44:46.328Z,21.63
2018-06-14T03:45:46.472Z,21.64
2018-06-14T03:46:46.503Z,21.64
2018-06-14T03:47:46.708Z,21.64
2018-06-14T03:48:46.414Z,21.64
2018-06-14T03:49:46.627Z,21.67
2018-06-14T03:50:46.656Z,21.67
2018-06-14T03:51:46.335Z,21.67
2018-06-14T03:52:46.621Z,21.66
2018-06-14T03:53:46.366Z,21.66
2018-06-14T03:54:46.525Z,21.64
2018-06-14T03:55:46.325Z,21.63
2018-06-14T03:56:46.445Z,21.64
2018-06-14T03:57:46.459Z,21.63
2018-06-14T03:58:46.524Z,21.64
2018-06-14T03:59:46.416Z,21.64
2018-06-14T04:00:46.316Z,21.64
2018-06-14T04:01:46.526Z,21.66
2018-06-14T04:02:46.476Z,21.64
2018-06-14T04:03:46.547Z,21.63
2018-06-14T04:04:46.408Z,21.64
2018-06-14T04:05:46.598Z,21.66
2018-06-14T04:06:46.454Z,21.63
2018-06-14T04:07:46.508Z,21.61
2018-06-14T04:08:46.480Z,21.64
2018-06-14T04:09:46.305Z,21.64
2018-06-14T04:10:46.432Z,21.64
2018-06-14T04:11:46.426Z,21.67
2018-06-14T04:12:46.455Z,21.67
2018-06-14T04:13:46.549Z,21.64
2018-06-14T04:14:46.458Z,21.61
2018-06-14T04:15:46.508Z,21.64
2018-06-14T04:16:46.579Z,21.61
2018-06-14T04:17:46.614Z,21.61
2018-06-14T04:18:46.606Z,21.63
2018-06-14T04:19:46.583Z,21.61
2018-06-14T04:20:46.580Z,21.61
2018-06-14T04:21:46.498Z,21.59
2018-06-14T04:22:46.567Z,21.61
2018-06-14T04:23:46.529Z,21.61
2018-06-14T04:24:46.527Z,21.64
2018-06-14T04:25:46.405Z,21.63
2018-06-14T04:26:46.515Z,21.63
2018-06-14T04:27:56.534Z,21.64
2018-06-14T04:28:46.655Z,21.66
2018-06-14T04:29:46.457Z,21.63
2018-06-14T04:30:46.371Z,21.66
2018-06-14T04:31:46.515Z,21.63
2018-06-14T04:32:46.418Z,21.61
2018-06-14T04:33:46.494Z,21.64
2018-06-14T04:34:46.366Z,21.63
2018-06-14T04:35:46.475Z,21.63
2018-06-14T04:36:46.540Z,21.6
2018-06-14T04:37:46.613Z,21.6
2018-06-14T04:38:46.403Z,21.6
2018-06-14T04:39:46.521Z,21.63
2018-06-14T04:40:46.386Z,21.64
2018-06-14T04:41:46.317Z,21.63
2018-06-14T04:42:46.274Z,21.61
2018-06-14T04:43:46.462Z,21.59
2018-06-14T04:44:46.547Z,21.63
2018-06-14T04:45:46.820Z,21.6
2018-06-14T04:46:46.456Z,21.61
2018-06-14T04:47:46.330Z,21.63
2018-06-14T04:48:46.462Z,21.61
2018-06-14T04:49:46.352Z,21.63
2018-06-14T04:50:46.308Z,21.63
2018-06-14T04:51:46.461Z,21.6
2018-06-14T04:52:46.315Z,21.59
2018-06-14T04:53:46.348Z,21.54
2018-06-14T04:54:46.405Z,21.56
2018-06-14T04:55:46.548Z,21.57
2018-06-14T04:56:46.369Z,21.57
2018-06-14T04:57:46.492Z,21.56
2018-06-14T04:58:46.678Z,21.57
2018-06-14T04:59:46.332Z,21.6
2018-06-14T05:00:46.443Z,21.61
2018-06-14T05:01:46.716Z,21.57
2018-06-14T05:02:46.744Z,21.59
2018-06-14T05:03:46.347Z,21.56
2018-06-14T05:04:46.542Z,21.59
2018-06-14T05:05:46.921Z,21.63
2018-06-14T05:06:46.408Z,21.61
2018-06-14T05:07:46.368Z,21.6
2018-06-14T05:08:46.503Z,21.61
2018-06-14T05:09:46.725Z,21.59
2018-06-14T05:10:46.356Z,21.57
2018-06-14T05:11:46.452Z,21.61
2018-06-14T05:12:46.538Z,21.61
2018-06-14T05:13:47.037Z,21.6
2018-06-14T05:14:46.485Z,21.6
2018-06-14T05:15:46.328Z,21.6
2018-06-14T05:16:46.590Z,21.57
2018-06-14T05:17:46.411Z,21.61
2018-06-14T05:18:46.521Z,21.59
2018-06-14T05:20:01.816Z,21.59
2018-06-14T05:20:46.394Z,21.59
2018-06-14T05:21:46.362Z,21.63
2018-06-14T05:22:46.734Z,21.6
2018-06-14T05:23:46.585Z,21.56
2018-06-14T05:24:56.438Z,21.56
2018-06-14T05:25:46.636Z,21.57
2018-06-14T05:26:46.505Z,21.59
2018-06-14T05:27:46.410Z,21.6
2018-06-14T05:28:46.523Z,21.59
2018-06-14T05:29:46.295Z,21.61
2018-06-14T05:30:46.367Z,21.61
2018-06-14T05:31:46.465Z,21.6
2018-06-14T05:32:46.336Z,21.61
2018-06-14T05:33:46.641Z,21.61
2018-06-14T05:34:46.456Z,21.6
2018-06-14T05:35:46.529Z,21.6
2018-06-14T05:36:46.383Z,21.63
2018-06-14T05:37:46.578Z,21.6
2018-06-14T05:38:46.575Z,21.6
2018-06-14T05:39:46.313Z,21.59
2018-06-14T05:40:46.433Z,21.59
2018-06-14T05:41:46.379Z,21.6
2018-06-14T05:42:46.698Z,21.61
2018-06-14T05:43:46.637Z,21.57
2018-06-14T05:44:46.392Z,21.6
2018-06-14T05:45:46.300Z,21.6
2018-06-14T05:46:46.568Z,21.61
2018-06-14T05:47:46.802Z,21.6
2018-06-14T05:48:46.436Z,21.64
2018-06-14T05:49:46.450Z,21.59
2018-06-14T05:50:46.555Z,21.59
2018-06-14T05:51:46.391Z,21.57
2018-06-14T05:52:46.364Z,21.54
2018-06-14T05:53:46.459Z,21.54
2018-06-14T05:54:46.324Z,21.53
2018-06-14T05:55:46.319Z,21.53
2018-06-14T05:56:46.448Z,21.54
2018-06-14T05:57:46.422Z,21.53
2018-06-14T05:58:46.250Z,21.53
2018-06-14T05:59:46.322Z,21.54
2018-06-14T06:00:46.318Z,21.54
2018-06-14T06:01:46.401Z,21.54
2018-06-14T06:02:46.931Z,21.53
2018-06-14T06:03:46.340Z,21.54
2018-06-14T06:04:46.530Z,21.53
2018-06-14T06:05:46.367Z,21.53
2018-06-14T06:06:46.434Z,21.53
2018-06-14T06:07:46.362Z,21.53
2018-06-14T06:08:46.402Z,21.54
2018-06-14T06:09:46.407Z,21.53
2018-06-14T06:10:46.400Z,21.53
2018-06-14T06:11:46.381Z,21.54
2018-06-14T06:12:46.324Z,21.53
2018-06-14T06:13:46.549Z,21.51
2018-06-14T06:14:46.359Z,21.54
2018-06-14T06:15:46.507Z,21.54
2018-06-14T06:16:46.369Z,21.51
2018-06-14T06:17:46.487Z,21.54
2018-06-14T06:18:46.534Z,21.56
2018-06-14T06:19:46.919Z,21.56
2018-06-14T06:20:46.434Z,21.54
2018-06-14T06:21:46.314Z,21.54
2018-06-14T06:22:46.440Z,21.54
2018-06-14T06:23:46.470Z,21.53
2018-06-14T06:24:46.399Z,21.54
2018-06-14T06:25:46.366Z,21.53
2018-06-14T06:26:46.684Z,21.54
2018-06-14T06:27:46.562Z,21.56
2018-06-14T06:28:46.342Z,21.57
2018-06-14T06:29:46.515Z,21.56
2018-06-14T06:30:46.290Z,21.6
2018-06-14T06:31:46.510Z,21.6
2018-06-14T06:32:46.385Z,21.63
2018-06-14T06:33:46.602Z,21.59
2018-06-14T06:34:46.564Z,21.59
2018-06-14T06:35:46.417Z,21.59
2018-06-14T06:36:46.629Z,21.63
2018-06-14T06:37:46.499Z,21.6
2018-06-14T06:38:47.124Z,21.63
2018-06-14T06:39:46.386Z,21.61
2018-06-14T06:40:46.507Z,21.63
2018-06-14T06:41:46.492Z,21.61
2018-06-14T06:42:46.467Z,21.6
2018-06-14T06:43:47.227Z,21.61
2018-06-14T06:44:46.483Z,21.63
2018-06-14T06:45:46.378Z,21.6
2018-06-14T06:46:46.502Z,21.61
2018-06-14T06:47:46.635Z,21.61
2018-06-14T06:48:56.332Z,21.63
2018-06-14T06:49:46.446Z,21.61
2018-06-14T06:50:46.314Z,21.61
2018-06-14T06:51:46.319Z,21.61
2018-06-14T06:52:46.527Z,21.61
2018-06-14T06:53:46.356Z,21.63
2018-06-14T06:54:46.513Z,21.6
2018-06-14T06:55:46.409Z,21.57
2018-06-14T06:56:46.456Z,21.56
2018-06-14T06:57:46.615Z,21.61
2018-06-14T06:58:46.659Z,21.59
2018-06-14T06:59:46.419Z,21.6
2018-06-14T07:00:46.502Z,21.61
2018-06-14T07:01:46.347Z,21.61
2018-06-14T07:02:46.517Z,21.61
2018-06-14T07:03:46.322Z,21.63
2018-06-14T07:04:46.433Z,21.61
2018-06-14T07:05:46.451Z,21.63
2018-06-14T07:06:46.581Z,21.63
2018-06-14T07:07:46.476Z,21.66
2018-06-14T07:08:46.483Z,21.66
2018-06-14T07:09:56.343Z,21.66
2018-06-14T07:10:46.414Z,21.63
2018-06-14T07:11:46.561Z,21.66
2018-06-14T07:12:46.449Z,21.63
2018-06-14T07:13:46.499Z,21.66
2018-06-14T07:14:46.308Z,21.64
2018-06-14T07:15:46.299Z,21.64
2018-06-14T07:16:46.503Z,21.66
2018-06-14T07:17:46.414Z,21.67
2018-06-14T07:18:46.582Z,21.67
2018-06-14T07:19:46.505Z,21.67
2018-06-14T07:20:46.516Z,21.64
2018-06-14T07:21:47.188Z,21.66
2018-06-14T07:22:46.435Z,21.68
2018-06-14T07:23:46.417Z,21.71
2018-06-14T07:24:46.486Z,21.73
2018-06-14T07:25:46.407Z,21.71
2018-06-14T07:26:46.459Z,21.68
2018-06-14T07:27:46.849Z,21.68
2018-06-14T07:28:46.406Z,21.67
2018-06-14T07:29:46.345Z,21.7
2018-06-14T07:30:46.301Z,21.7
2018-06-14T07:31:46.425Z,21.7
2018-06-14T07:32:46.288Z,21.71
2018-06-14T07:33:46.509Z,21.73
2018-06-14T07:34:46.510Z,21.73
2018-06-14T07:35:46.535Z,21.71
2018-06-14T07:36:46.436Z,21.71
2018-06-14T07:37:46.477Z,21.73
2018-06-14T07:38:46.277Z,21.73
2018-06-14T07:39:46.470Z,21.74
2018-06-14T07:40:46.526Z,21.76
2018-06-14T07:41:46.511Z,21.76
2018-06-14T07:42:46.488Z,21.73
2018-06-14T07:43:46.476Z,21.74
2018-06-14T07:44:46.379Z,21.76
2018-06-14T07:45:46.453Z,21.76
2018-06-14T07:46:46.263Z,21.76
2018-06-14T07:47:46.324Z,21.76
2018-06-14T07:48:46.287Z,21.77
2018-06-14T07:49:46.451Z,21.73
2018-06-14T07:50:46.339Z,21.74
2018-06-14T07:51:46.550Z,21.76
2018-06-14T07:52:46.502Z,21.78
2018-06-14T07:53:46.329Z,21.81
2018-06-14T07:54:46.374Z,21.78
2018-06-14T07:55:46.423Z,21.76
2018-06-14T07:56:46.460Z,21.74
2018-06-14T07:57:46.349Z,21.71
2018-06-14T07:58:46.284Z,21.73
2018-06-14T07:59:46.368Z,21.68
2018-06-14T08:00:46.472Z,21.7
2018-06-14T08:01:46.445Z,21.67
2018-06-14T08:02:46.506Z,21.67
2018-06-14T08:03:46.467Z,21.68
2018-06-14T08:04:46.313Z,21.64
2018-06-14T08:05:46.373Z,21.66
2018-06-14T08:06:46.300Z,21.66
2018-06-14T08:07:46.357Z,21.67
2018-06-14T08:08:56.312Z,21.66
2018-06-14T08:09:46.336Z,21.66
2018-06-14T08:10:46.582Z,21.64
2018-06-14T08:11:46.485Z,21.63
2018-06-14T08:12:46.747Z,21.63
2018-06-14T08:13:46.239Z,21.63
2018-06-14T08:14:46.500Z,21.6
2018-06-14T08:15:46.468Z,21.6
2018-06-14T08:16:46.428Z,21.61
2018-06-14T08:17:46.425Z,21.61
2018-06-14T08:18:46.444Z,21.61
2018-06-14T08:19:46.286Z,21.63
2018-06-14T08:20:46.344Z,21.61
2018-06-14T08:21:46.276Z,21.64
2018-06-14T08:22:46.349Z,21.57
2018-06-14T08:23:46.431Z,21.61
2018-06-14T08:24:46.453Z,21.61
2018-06-14T08:25:46.582Z,21.61
2018-06-14T08:26:46.426Z,21.6
2018-06-14T08:27:46.322Z,21.61
2018-06-14T08:28:46.449Z,21.6
2018-06-14T08:29:46.291Z,21.61
2018-06-14T08:30:46.477Z,21.6
2018-06-14T08:31:46.322Z,21.61
2018-06-14T08:32:46.545Z,21.6
2018-06-14T08:33:46.461Z,21.6
2018-06-14T08:34:46.415Z,21.6
2018-06-14T08:35:46.420Z,21.6
2018-06-14T08:36:46.302Z,21.63
2018-06-14T08:37:46.373Z,21.63
2018-06-14T08:38:46.365Z,21.61
2018-06-14T08:39:46.399Z,21.6
2018-06-14T08:40:46.426Z,21.6
2018-06-14T08:41:46.464Z,21.63
2018-06-14T08:42:46.343Z,21.6
2018-06-14T08:43:46.391Z,21.61
2018-06-14T08:44:46.875Z,21.6
2018-06-14T08:45:46.475Z,21.57
2018-06-14T08:46:47.408Z,21.59
2018-06-14T08:47:46.390Z,21.57
2018-06-14T08:48:46.474Z,21.6
2018-06-14T08:49:46.265Z,21.59
2018-06-14T08:50:46.405Z,21.57
2018-06-14T08:51:46.369Z,21.56
2018-06-14T08:52:46.559Z,21.54
2018-06-14T08:53:46.574Z,21.57
2018-06-14T08:54:46.456Z,21.57
2018-06-14T08:55:46.277Z,21.56
2018-06-14T08:56:46.297Z,21.54
2018-06-14T08:57:47.118Z,21.54
2018-06-14T08:58:46.493Z,21.54
2018-06-14T08:59:46.401Z,21.56
2018-06-14T09:00:46.447Z,21.54
2018-06-14T09:01:46.401Z,21.53
2018-06-14T09:02:46.502Z,21.53
2018-06-14T09:03:46.504Z,21.53
2018-06-14T09:04:46.519Z,21.53
2018-06-14T09:05:46.353Z,21.53
2018-06-14T09:06:46.479Z,21.53
2018-06-14T09:07:46.595Z,21.54
2018-06-14T09:08:46.336Z,21.51
2018-06-14T09:09:47.116Z,21.53
2018-06-14T09:10:46.340Z,21.53
2018-06-14T09:11:46.442Z,21.56
2018-06-14T09:12:47.136Z,21.56
2018-06-14T09:13:46.588Z,21.56
2018-06-14T09:14:46.723Z,21.54
2018-06-14T09:15:46.881Z,21.53
2018-06-14T09:16:46.672Z,21.51
2018-06-14T09:17:46.676Z,21.51
2018-06-14T09:18:46.767Z,21.54
2018-06-14T09:19:46.677Z,21.53
2018-06-14T09:20:46.802Z,21.51
2018-06-14T09:21:46.951Z,21.53
2018-06-14T09:22:46.689Z,21.51
2018-06-14T09:23:46.620Z,21.53
2018-06-14T09:24:46.851Z,21.53
2018-06-14T09:25:47.063Z,21.53
2018-06-14T09:26:47.025Z,21.53
2018-06-14T09:27:46.990Z,21.51
2018-06-14T09:28:46.698Z,21.51
2018-06-14T09:29:46.808Z,21.49
2018-06-14T09:30:49.444Z,21.51
2018-06-14T09:31:46.220Z,21.51
2018-06-14T09:32:46.522Z,21.51
2018-06-14T09:33:46.946Z,21.51
2018-06-14T09:34:46.649Z,21.51
2018-06-14T09:35:47.273Z,21.53
2018-06-14T09:36:46.678Z,21.53
2018-06-14T09:37:46.739Z,21.5
2018-06-14T09:38:46.731Z,21.5
2018-06-14T09:39:46.680Z,21.5
2018-06-14T09:40:46.735Z,21.5
2018-06-14T09:41:46.951Z,21.5
2018-06-14T09:42:47.262Z,21.49
2018-06-14T09:43:46.631Z,21.5
2018-06-14T09:44:48.960Z,21.5
2018-06-14T09:45:47.765Z,21.51
2018-06-14T09:46:46.700Z,21.56
2018-06-14T09:47:49.200Z,21.57
2018-06-14T09:48:47.011Z,21.57
2018-06-14T09:49:47.029Z,21.6
2018-06-14T09:50:46.278Z,21.6
2018-06-14T09:51:46.983Z,21.61
2018-06-14T09:52:47.008Z,21.64
2018-06-14T09:53:46.495Z,21.63
2018-06-14T09:54:46.436Z,21.64
2018-06-14T09:55:46.355Z,21.61
2018-06-14T09:56:46.597Z,21.61
2018-06-14T09:57:46.315Z,21.64
2018-06-14T09:58:46.528Z,21.63
2018-06-14T09:59:46.303Z,21.64
2018-06-14T10:00:46.271Z,21.66
2018-06-14T10:01:46.447Z,21.68
2018-06-14T10:02:46.404Z,21.7
2018-06-14T10:03:46.511Z,21.68
2018-06-14T10:04:46.468Z,21.68
2018-06-14T10:05:46.448Z,21.71
2018-06-14T10:06:46.356Z,21.73
2018-06-14T10:07:46.389Z,21.74
2018-06-14T10:08:46.344Z,21.73
2018-06-14T10:09:46.380Z,21.74
2018-06-14T10:10:46.328Z,21.74
2018-06-14T10:11:46.429Z,21.76
2018-06-14T10:12:46.442Z,21.76
2018-06-14T10:13:46.495Z,21.78
2018-06-14T10:14:46.369Z,21.77
2018-06-14T10:15:46.447Z,21.76
2018-06-14T10:16:46.318Z,21.78
2018-06-14T10:17:46.375Z,21.76
2018-06-14T10:18:47.032Z,21.77
2018-06-14T10:19:46.404Z,21.76
2018-06-14T10:20:46.429Z,21.74
2018-06-14T10:21:47.130Z,21.77
2018-06-14T10:22:46.235Z,21.78
2018-06-14T10:23:46.287Z,21.78
2018-06-14T10:24:46.478Z,21.8
2018-06-14T10:25:46.451Z,21.8
2018-06-14T10:26:46.199Z,21.82
2018-06-14T10:27:46.234Z,21.81
2018-06-14T10:28:46.347Z,21.81
2018-06-14T10:29:46.436Z,21.84
2018-06-14T10:30:46.479Z,21.81
2018-06-14T10:31:46.297Z,21.81
2018-06-14T10:32:46.423Z,21.81
2018-06-14T10:33:46.296Z,21.82
2018-06-14T10:34:46.392Z,21.81
2018-06-14T10:35:46.176Z,21.82
2018-06-14T10:36:46.398Z,21.82
2018-06-14T10:37:46.275Z,21.84
2018-06-14T10:38:46.270Z,21.85
2018-06-14T10:39:46.315Z,21.84
2018-06-14T10:40:46.567Z,21.84
2018-06-14T10:41:46.409Z,21.82
2018-06-14T10:42:46.291Z,21.82
2018-06-14T10:43:46.455Z,21.84
2018-06-14T10:44:46.196Z,21.87
2018-06-14T10:45:46.553Z,21.84
2018-06-14T10:46:46.413Z,21.85
2018-06-14T10:47:46.345Z,21.85
2018-06-14T10:48:46.246Z,21.85
2018-06-14T10:49:46.307Z,21.82
2018-06-14T10:50:46.306Z,21.81
2018-06-14T10:51:46.370Z,21.8
2018-06-14T10:52:46.291Z,21.77
2018-06-14T10:53:46.317Z,21.78
2018-06-14T10:54:46.480Z,21.81
2018-06-14T10:55:46.486Z,21.74
2018-06-14T10:56:46.370Z,21.74
2018-06-14T10:57:46.387Z,21.71
2018-06-14T10:58:46.197Z,21.74
2018-06-14T10:59:46.493Z,21.74
2018-06-14T11:00:46.462Z,21.7
2018-06-14T11:01:46.454Z,21.71
2018-06-14T11:02:46.401Z,21.71
2018-06-14T11:03:46.415Z,21.71
2018-06-14T11:04:46.464Z,21.71
2018-06-14T11:05:46.424Z,21.71
2018-06-14T11:06:46.390Z,21.71
2018-06-14T11:07:46.479Z,21.73
2018-06-14T11:08:46.344Z,21.71
2018-06-14T11:09:46.349Z,21.68
2018-06-14T11:10:46.429Z,21.66
2018-06-14T11:11:46.381Z,21.67
2018-06-14T11:12:46.420Z,21.67
2018-06-14T11:13:46.263Z,21.7
2018-06-14T11:14:46.840Z,21.68
2018-06-14T11:15:46.488Z,21.7
2018-06-14T11:16:46.544Z,21.68
2018-06-14T11:17:46.508Z,21.67
2018-06-14T11:18:46.445Z,21.67
2018-06-14T11:19:46.391Z,21.66
2018-06-14T11:20:46.379Z,21.66
2018-06-14T11:21:46.463Z,21.67
2018-06-14T11:22:46.522Z,21.68
2018-06-14T11:23:46.502Z,21.67
2018-06-14T11:24:46.288Z,21.67
2018-06-14T11:25:46.407Z,21.66
2018-06-14T11:26:46.247Z,21.68
2018-06-14T11:27:46.357Z,21.7
2018-06-14T11:28:46.491Z,21.66
2018-06-14T11:29:46.306Z,21.67
2018-06-14T11:30:46.601Z,21.66
2018-06-14T11:31:46.452Z,21.66
2018-06-14T11:32:46.386Z,21.66
2018-06-14T11:33:46.302Z,21.67
2018-06-14T11:34:46.284Z,21.66
2018-06-14T11:35:46.372Z,21.68
2018-06-14T11:36:46.330Z,21.66
2018-06-14T11:37:46.538Z,21.66
2018-06-14T11:38:46.363Z,21.66
2018-06-14T11:39:46.494Z,21.66
2018-06-14T11:40:46.310Z,21.67
2018-06-14T11:41:46.464Z,21.68
2018-06-14T11:42:46.190Z,21.68
2018-06-14T11:43:46.529Z,21.66
2018-06-14T11:44:46.396Z,21.66
2018-06-14T11:45:46.498Z,21.66
2018-06-14T11:46:46.466Z,21.64
2018-06-14T11:47:46.382Z,21.66
2018-06-14T11:48:46.487Z,21.67
2018-06-14T11:49:46.523Z,21.66
2018-06-14T11:50:46.297Z,21.66
2018-06-14T11:51:46.224Z,21.66
2018-06-14T11:52:46.204Z,21.67
2018-06-14T11:53:46.451Z,21.63
2018-06-14T11:54:46.549Z,21.64
2018-06-14T11:55:46.324Z,21.63
2018-06-14T11:56:46.444Z,21.64
2018-06-14T11:57:46.343Z,21.64
2018-06-14T11:58:46.268Z,21.63
2018-06-14T11:59:46.261Z,21.64
2018-06-14T12:00:46.213Z,21.64
2018-06-14T12:01:46.955Z,21.64
2018-06-14T12:02:46.527Z,21.64
2018-06-14T12:03:46.199Z,21.64
2018-06-14T12:04:46.260Z,21.63
2018-06-14T12:05:46.536Z,21.63
2018-06-14T12:06:46.299Z,21.61
2018-06-14T12:07:46.424Z,21.61
2018-06-14T12:08:46.584Z,21.67
2018-06-14T12:09:46.251Z,21.66
2018-06-14T12:10:46.405Z,21.63
2018-06-14T12:11:46.447Z,21.61
2018-06-14T12:12:46.385Z,21.59
2018-06-14T12:13:46.493Z,21.63
2018-06-14T12:14:46.380Z,21.66
2018-06-14T12:15:46.295Z,21.63
2018-06-14T12:16:46.368Z,21.61
2018-06-14T12:17:46.462Z,21.63
2018-06-14T12:18:46.212Z,21.6
2018-06-14T12:19:46.378Z,21.63
2018-06-14T12:20:46.396Z,21.6
2018-06-14T12:21:46.434Z,21.6
2018-06-14T12:22:46.460Z,21.63
2018-06-14T12:23:46.515Z,21.61
2018-06-14T12:24:46.419Z,21.6
2018-06-14T12:25:46.327Z,21.6
2018-06-14T12:26:46.462Z,21.61
2018-06-14T12:27:46.262Z,21.6
2018-06-14T12:28:46.305Z,21.63
2018-06-14T12:29:46.304Z,21.6
2018-06-14T12:30:46.625Z,21.6
2018-06-14T12:31:46.934Z,21.59
2018-06-14T12:32:46.355Z,21.6
2018-06-14T12:33:46.496Z,21.6
2018-06-14T12:34:46.398Z,21.6
2018-06-14T12:35:46.427Z,21.6
2018-06-14T12:36:46.803Z,21.6
2018-06-14T12:37:47.084Z,21.6
2018-06-14T12:38:46.356Z,21.63
2018-06-14T12:39:46.426Z,21.61
2018-06-14T12:40:46.214Z,21.59
2018-06-14T12:41:46.434Z,21.6
2018-06-14T12:42:46.384Z,21.61
2018-06-14T12:43:46.342Z,21.6
2018-06-14T12:44:46.399Z,21.61
2018-06-14T12:45:46.464Z,21.66
2018-06-14T12:46:46.510Z,21.63
2018-06-14T12:47:46.402Z,21.57
2018-06-14T12:48:46.217Z,21.6
2018-06-14T12:49:46.431Z,21.61
2018-06-14T12:50:46.356Z,21.59
2018-06-14T12:51:46.347Z,21.57
2018-06-14T12:52:46.455Z,21.57
2018-06-14T12:53:46.713Z,21.57
2018-06-14T12:54:46.288Z,21.59
2018-06-14T12:55:46.348Z,21.59
2018-06-14T12:56:46.421Z,21.57